createdAt,value
2017-01-15T00:00:07.018Z,4.55
2017-01-15T00:00:47.481Z,4.52
2017-01-15T00:01:27.904Z,4.47
2017-01-15T00:02:08.413Z,4.65
2017-01-15T00:02:48.885Z,4.5
2017-01-15T00:03:29.390Z,4.37
2017-01-15T00:04:09.922Z,4.42
2017-01-15T00:04:50.457Z,4.5
2017-01-15T00:05:30.914Z,4.45
2017-01-15T00:06:11.392Z,4.55
2017-01-15T00:06:51.916Z,4.51
2017-01-15T00:07:32.351Z,4.4
2017-01-15T00:08:12.855Z,4.4
2017-01-15T00:08:53.294Z,4.5
2017-01-15T00:09:33.799Z,4.48
2017-01-15T00:10:14.319Z,4.37
2017-01-15T00:10:54.826Z,4.36
2017-01-15T00:11:35.456Z,4.42
2017-01-15T00:12:15.986Z,4.4
2017-01-15T00:12:56.402Z,4.45
2017-01-15T00:13:36.937Z,4.36
2017-01-15T00:14:17.418Z,4.42
2017-01-15T00:14:57.843Z,4.37
2017-01-15T00:15:38.370Z,4.44
2017-01-15T00:16:18.808Z,4.36
2017-01-15T00:16:59.282Z,4.27
2017-01-15T00:17:39.868Z,4.42
2017-01-15T00:18:20.332Z,4.42
2017-01-15T00:19:01.013Z,4.54
2017-01-15T00:19:41.512Z,4.55
2017-01-15T00:20:21.968Z,4.48
2017-01-15T00:21:02.534Z,4.52
2017-01-15T00:21:43.006Z,4.48
2017-01-15T00:22:23.532Z,4.52
2017-01-15T00:23:04.140Z,4.52
2017-01-15T00:23:44.551Z,4.59
2017-01-15T00:24:25.079Z,4.62
2017-01-15T00:25:05.519Z,4.5
2017-01-15T00:25:46.055Z,4.47
2017-01-15T00:26:26.503Z,4.4
2017-01-15T00:27:06.983Z,4.52
2017-01-15T00:27:47.519Z,4.58
2017-01-15T00:31:33.736Z,4.63
2017-01-15T00:32:14.051Z,4.59
2017-01-15T00:32:54.535Z,4.63
2017-01-15T00:33:35.077Z,4.58
2017-01-15T00:34:15.631Z,4.59
2017-01-15T00:34:56.239Z,4.55
2017-01-15T00:35:36.720Z,4.67
2017-01-15T00:36:17.231Z,4.67
2017-01-15T00:36:57.824Z,4.67
2017-01-15T00:37:38.273Z,4.66
2017-01-15T00:38:18.773Z,4.6
2017-01-15T00:38:59.263Z,4.6
2017-01-15T00:39:39.756Z,4.62
2017-01-15T00:40:20.263Z,4.62
2017-01-15T00:41:00.705Z,4.6
2017-01-15T00:41:41.282Z,4.63
2017-01-15T00:42:21.857Z,4.5
2017-01-15T00:43:02.359Z,4.59
2017-01-15T00:43:42.870Z,4.58
2017-01-15T00:44:23.283Z,4.54
2017-01-15T00:45:04.576Z,4.48
2017-01-15T00:45:44.246Z,4.48
2017-01-15T00:46:24.787Z,4.51
2017-01-15T00:47:05.272Z,4.51
2017-01-15T00:47:45.791Z,4.51
2017-01-15T00:48:26.282Z,4.54
2017-01-15T00:49:06.768Z,4.55
2017-01-15T00:49:47.211Z,4.51
2017-01-15T00:50:27.741Z,4.52
2017-01-15T00:51:08.228Z,4.44
2017-01-15T00:51:48.747Z,4.58
2017-01-15T00:52:29.237Z,4.54
2017-01-15T00:53:09.751Z,4.5
2017-01-15T00:53:50.222Z,4.36
2017-01-15T00:54:30.731Z,4.4
2017-01-15T00:55:11.212Z,4.29
2017-01-15T00:55:51.668Z,4.16
2017-01-15T00:56:32.143Z,4.22
2017-01-15T00:57:12.641Z,4.09
2017-01-15T00:57:53.206Z,4.24
2017-01-15T00:58:33.711Z,4.29
2017-01-15T00:59:14.188Z,4.32
2017-01-15T00:59:54.684Z,4.45
2017-01-15T01:00:35.174Z,4.4
2017-01-15T01:01:15.635Z,4.27
2017-01-15T01:01:56.223Z,4.41
2017-01-15T01:02:36.716Z,4.4
2017-01-15T01:03:17.126Z,4.4
2017-01-15T01:03:57.645Z,4.45
2017-01-15T01:04:38.122Z,4.41
2017-01-15T01:05:18.645Z,4.4
2017-01-15T01:05:59.132Z,4.29
2017-01-15T01:06:39.598Z,4.23
2017-01-15T01:07:20.164Z,4.18
2017-01-15T01:08:01.577Z,4.3
2017-01-15T01:08:42.742Z,4.27
2017-01-15T01:09:25.084Z,4.32
2017-01-15T01:10:05.179Z,4.37
2017-01-15T01:10:45.671Z,4.37
2017-01-15T01:11:26.182Z,4.42
2017-01-15T01:12:06.692Z,4.34
2017-01-15T01:12:47.200Z,4.33
2017-01-15T01:13:27.770Z,4.37
2017-01-15T01:14:08.213Z,4.24
2017-01-15T01:14:48.721Z,4.3
2017-01-15T01:15:29.225Z,4.24
2017-01-15T01:16:09.829Z,4.05
2017-01-15T01:18:00.005Z,4.2
2017-01-15T01:18:40.554Z,4.18
2017-01-15T01:19:23.438Z,4.27
2017-01-15T01:20:03.939Z,4.16
2017-01-15T01:20:44.402Z,4.2
2017-01-15T01:21:24.889Z,4.15
2017-01-15T01:22:05.376Z,4.2
2017-01-15T01:22:45.866Z,4.24
2017-01-15T01:23:26.292Z,4.14
2017-01-15T01:24:06.825Z,4.2
2017-01-15T01:24:48.449Z,4.18
2017-01-15T01:25:29.570Z,4.16
2017-01-15T01:26:09.747Z,4.22
2017-01-15T01:28:23.109Z,4.3
2017-01-15T01:29:06.046Z,4.33
2017-01-15T01:29:46.522Z,4.4
2017-01-15T01:30:27.029Z,4.34
2017-01-15T01:31:07.508Z,4.4
2017-01-15T01:31:48.141Z,4.37
2017-01-15T01:32:28.614Z,4.32
2017-01-15T01:33:09.071Z,4.32
2017-01-15T01:33:51.031Z,4.32
2017-01-15T01:34:31.702Z,4.29
2017-01-15T01:35:12.177Z,4.37
2017-01-15T01:35:52.687Z,4.32
2017-01-15T01:36:33.151Z,4.4
2017-01-15T01:37:13.677Z,4.41
2017-01-15T01:37:54.154Z,4.44
2017-01-15T01:38:35.587Z,4.42
2017-01-15T01:39:17.797Z,4.27
2017-01-15T01:39:58.455Z,4.12
2017-01-15T01:40:38.835Z,4.18
2017-01-15T01:41:19.335Z,4.22
2017-01-15T01:41:59.847Z,4.24
2017-01-15T01:42:40.305Z,4.3
2017-01-15T01:43:20.792Z,4.34
2017-01-15T01:44:01.294Z,4.34
2017-01-15T01:44:41.748Z,4.32
2017-01-15T01:45:24.027Z,4.36
2017-01-15T01:46:04.259Z,4.37
2017-01-15T01:46:44.743Z,4.29
2017-01-15T01:47:25.245Z,4.29
2017-01-15T01:48:05.710Z,4.32
2017-01-15T01:48:46.185Z,4.23
2017-01-15T01:49:26.651Z,4.29
2017-01-15T01:50:07.192Z,4.29
2017-01-15T01:50:47.647Z,4.29
2017-01-15T01:51:28.214Z,4.37
2017-01-15T01:52:08.632Z,4.3
2017-01-15T01:52:49.128Z,4.26
2017-01-15T01:53:29.627Z,4.32
2017-01-15T01:54:10.557Z,4.29
2017-01-15T01:54:51.024Z,4.12
2017-01-15T01:55:33.794Z,4.26
2017-01-15T01:56:15.240Z,4.32
2017-01-15T01:56:56.170Z,4.42
2017-01-15T01:57:36.731Z,4.42
2017-01-15T01:58:17.132Z,4.4
2017-01-15T01:58:57.642Z,4.47
2017-01-15T01:59:38.147Z,4.48
2017-01-15T02:00:18.671Z,4.33
2017-01-15T02:00:59.121Z,4.44
2017-01-15T02:01:40.514Z,4.37
2017-01-15T02:02:20.711Z,4.37
2017-01-15T02:03:02.148Z,4.42
2017-01-15T02:03:42.445Z,4.51
2017-01-15T02:04:22.930Z,4.41
2017-01-15T02:05:03.425Z,4.36
2017-01-15T02:05:43.877Z,4.37
2017-01-15T02:06:24.383Z,4.52
2017-01-15T02:07:04.881Z,4.37
2017-01-15T02:07:45.399Z,4.41
2017-01-15T02:08:25.904Z,4.48
2017-01-15T02:09:06.621Z,4.42
2017-01-15T02:09:47.606Z,4.42
2017-01-15T02:10:28.577Z,4.5
2017-01-15T02:11:09.102Z,4.47
2017-01-15T02:11:49.660Z,4.47
2017-01-15T02:12:30.123Z,4.55
2017-01-15T02:13:10.702Z,4.37
2017-01-15T02:13:51.072Z,4.4
2017-01-15T02:14:31.565Z,4.5
2017-01-15T02:15:12.084Z,4.58
2017-01-15T02:15:52.587Z,4.42
2017-01-15T02:16:33.618Z,4.42
2017-01-15T02:17:14.065Z,4.4
2017-01-15T02:17:55.519Z,4.34
2017-01-15T02:18:35.590Z,4.29
2017-01-15T02:19:16.076Z,4.36
2017-01-15T02:19:56.557Z,4.42
2017-01-15T02:20:37.047Z,4.3
2017-01-15T02:21:17.625Z,4.34
2017-01-15T02:21:58.062Z,4.29
2017-01-15T02:22:38.546Z,4.36
2017-01-15T02:23:18.996Z,4.23
2017-01-15T02:23:59.464Z,4.11
2017-01-15T02:24:39.940Z,4.09
2017-01-15T02:25:21.062Z,4.18
2017-01-15T02:26:02.329Z,4.04
2017-01-15T02:26:43.294Z,4.11
2017-01-15T02:27:23.766Z,4.08
2017-01-15T02:28:04.275Z,4.04
2017-01-15T02:28:44.736Z,4.18
2017-01-15T02:29:25.278Z,4.15
2017-01-15T02:30:05.780Z,4.09
2017-01-15T02:30:46.250Z,4.04
2017-01-15T02:31:26.725Z,4.08
2017-01-15T02:32:07.187Z,4.06
2017-01-15T02:32:47.679Z,4.11
2017-01-15T02:33:28.176Z,4.14
2017-01-15T02:34:08.644Z,4.24
2017-01-15T02:34:49.105Z,4.15
2017-01-15T02:35:29.602Z,4.08
2017-01-15T02:36:10.081Z,4.11
2017-01-15T02:36:51.886Z,4.11
2017-01-15T02:37:32.324Z,4.09
2017-01-15T02:38:13.310Z,4.22
2017-01-15T02:38:53.787Z,4.14
2017-01-15T02:39:34.278Z,4.11
2017-01-15T02:40:14.761Z,4.2
2017-01-15T02:40:55.240Z,4.24
2017-01-15T02:41:35.793Z,4.18
2017-01-15T02:42:16.247Z,4.04
2017-01-15T02:42:56.744Z,4.04
2017-01-15T02:43:37.250Z,4.12
2017-01-15T02:44:17.682Z,4.04
2017-01-15T02:44:58.207Z,4.06
2017-01-15T02:45:38.642Z,4.06
2017-01-15T02:46:19.114Z,4.04
2017-01-15T02:46:59.608Z,4.04
2017-01-15T02:47:40.084Z,3.97
2017-01-15T02:48:20.653Z,4.09
2017-01-15T02:49:01.199Z,4.05
2017-01-15T02:49:41.761Z,4.09
2017-01-15T02:50:23.273Z,4.02
2017-01-15T02:51:03.719Z,4.06
2017-01-15T02:51:44.242Z,4.08
2017-01-15T02:52:25.010Z,4.02
2017-01-15T02:53:05.521Z,4.02
2017-01-15T02:53:46.009Z,3.91
2017-01-15T02:54:26.555Z,3.91
2017-01-15T02:55:07.683Z,3.96
2017-01-15T02:55:48.233Z,4
2017-01-15T02:56:29.832Z,3.97
2017-01-15T02:58:18.712Z,4.11
2017-01-15T02:58:59.145Z,4.12
2017-01-15T02:59:39.649Z,4.24
2017-01-15T03:00:20.123Z,4.18
2017-01-15T03:01:00.670Z,4.14
2017-01-15T03:01:41.286Z,4.22
2017-01-15T03:02:21.917Z,4.23
2017-01-15T03:03:02.516Z,4.23
2017-01-15T03:03:42.804Z,4.22
2017-01-15T03:04:23.240Z,4.14
2017-01-15T03:05:03.722Z,4.06
2017-01-15T03:05:44.215Z,4.09
2017-01-15T03:06:24.698Z,4.12
2017-01-15T03:07:05.884Z,4.11
2017-01-15T03:07:46.727Z,4.18
2017-01-15T03:08:28.780Z,4.15
2017-01-15T03:09:08.036Z,4.12
2017-01-15T03:09:48.508Z,4.18
2017-01-15T03:10:28.978Z,4.15
2017-01-15T03:11:09.421Z,4.23
2017-01-15T03:11:49.929Z,4.36
2017-01-15T03:12:30.466Z,4.4
2017-01-15T03:13:10.916Z,4.3
2017-01-15T03:13:51.409Z,4.29
2017-01-15T03:14:31.887Z,4.29
2017-01-15T03:15:12.412Z,4.27
2017-01-15T03:15:52.883Z,4.26
2017-01-15T03:16:33.353Z,4.33
2017-01-15T03:17:13.883Z,4.34
2017-01-15T03:17:54.573Z,4.22
2017-01-15T03:18:35.061Z,4.23
2017-01-15T03:19:15.546Z,4.3
2017-01-15T03:19:56.016Z,4.32
2017-01-15T03:20:36.637Z,4.34
2017-01-15T03:21:17.105Z,4.3
2017-01-15T03:21:57.584Z,4.27
2017-01-15T03:22:38.133Z,4.23
2017-01-15T03:23:18.530Z,4.18
2017-01-15T03:23:59.066Z,4.22
2017-01-15T03:24:39.559Z,4.29
2017-01-15T03:25:20.021Z,4.26
2017-01-15T03:26:00.631Z,4.29
2017-01-15T03:26:41.186Z,4.3
2017-01-15T03:27:21.897Z,4.32
2017-01-15T03:28:02.575Z,4.3
2017-01-15T03:28:43.146Z,4.36
2017-01-15T03:29:23.601Z,4.41
2017-01-15T03:30:04.150Z,4.44
2017-01-15T03:30:44.732Z,4.44
2017-01-15T03:31:25.881Z,4.45
2017-01-15T03:32:05.676Z,4.42
2017-01-15T03:32:46.102Z,4.37
2017-01-15T03:33:26.607Z,4.45
2017-01-15T03:34:07.111Z,4.48
2017-01-15T03:34:47.825Z,4.52
2017-01-15T03:35:28.337Z,4.51
2017-01-15T03:36:08.851Z,4.44
2017-01-15T03:36:49.377Z,4.44
2017-01-15T03:37:29.897Z,4.41
2017-01-15T03:38:10.433Z,4.47
2017-01-15T03:38:50.945Z,4.4
2017-01-15T03:39:31.425Z,4.48
2017-01-15T03:40:12.664Z,4.48
2017-01-15T03:40:53.165Z,4.47
2017-01-15T03:41:33.648Z,4.51
2017-01-15T03:42:14.125Z,4.34
2017-01-15T03:42:54.599Z,4.34
2017-01-15T03:43:35.068Z,4.45
2017-01-15T03:44:15.601Z,4.47
2017-01-15T03:44:56.226Z,4.51
2017-01-15T03:45:36.709Z,4.48
2017-01-15T03:46:17.289Z,4.4
2017-01-15T03:46:57.967Z,4.36
2017-01-15T03:47:38.560Z,4.37
2017-01-15T03:48:18.996Z,4.34
2017-01-15T03:48:59.543Z,4.37
2017-01-15T03:49:40.007Z,4.29
2017-01-15T03:50:20.495Z,4.34
2017-01-15T03:51:01.010Z,4.3
2017-01-15T03:51:41.457Z,4.34
2017-01-15T03:52:21.978Z,4.48
2017-01-15T03:53:02.469Z,4.47
2017-01-15T03:53:43.040Z,4.5
2017-01-15T03:54:23.485Z,4.4
2017-01-15T03:55:03.999Z,4.41
2017-01-15T03:55:44.484Z,4.42
2017-01-15T03:56:24.946Z,4.41
2017-01-15T03:57:05.478Z,4.33
2017-01-15T03:57:45.996Z,4.44
2017-01-15T03:58:26.458Z,4.33
2017-01-15T03:59:06.999Z,4.32
2017-01-15T03:59:47.466Z,4.45
2017-01-15T04:00:28.001Z,4.37
2017-01-15T04:01:08.492Z,4.47
2017-01-15T04:01:48.996Z,4.45
2017-01-15T04:02:29.623Z,4.33
2017-01-15T04:03:10.125Z,4.33
2017-01-15T04:03:50.585Z,4.2
2017-01-15T04:04:31.106Z,4.27
2017-01-15T04:05:11.542Z,4.23
2017-01-15T04:05:52.066Z,4.26
2017-01-15T04:06:32.602Z,4.18
2017-01-15T04:07:13.054Z,4.16
2017-01-15T04:07:53.526Z,4.2
2017-01-15T04:08:34.035Z,4.05
2017-01-15T04:09:14.770Z,4.09
2017-01-15T04:09:55.074Z,4.02
2017-01-15T04:10:35.508Z,4.11
2017-01-15T04:11:15.999Z,4
2017-01-15T04:11:56.521Z,4.06
2017-01-15T04:12:37.012Z,4
2017-01-15T04:13:17.469Z,4.04
2017-01-15T04:13:57.975Z,4.02
2017-01-15T04:14:38.495Z,3.97
2017-01-15T04:15:18.954Z,3.91
2017-01-15T04:15:59.479Z,3.96
2017-01-15T04:16:39.929Z,4.02
2017-01-15T04:17:20.521Z,4.06
2017-01-15T04:18:00.988Z,3.98
2017-01-15T04:18:41.450Z,4.06
2017-01-15T04:19:21.975Z,4.11
2017-01-15T04:20:02.460Z,4.09
2017-01-15T04:20:42.969Z,3.98
2017-01-15T04:21:23.427Z,3.96
2017-01-15T04:22:03.946Z,3.97
2017-01-15T04:22:44.441Z,3.91
2017-01-15T04:23:24.931Z,3.93
2017-01-15T04:24:05.433Z,3.83
2017-01-15T04:24:45.892Z,3.88
2017-01-15T04:25:26.390Z,3.78
2017-01-15T04:26:06.871Z,3.84
2017-01-15T04:26:47.380Z,3.8
2017-01-15T04:27:27.895Z,3.78
2017-01-15T04:28:08.489Z,3.8
2017-01-15T04:28:48.964Z,3.79
2017-01-15T04:29:29.470Z,3.78
2017-01-15T04:30:09.916Z,3.62
2017-01-15T04:30:50.503Z,3.7
2017-01-15T04:31:30.974Z,3.61
2017-01-15T04:32:11.533Z,3.72
2017-01-15T04:32:52.018Z,3.7
2017-01-15T04:33:32.518Z,3.73
2017-01-15T04:34:12.990Z,3.75
2017-01-15T04:34:53.623Z,3.75
2017-01-15T04:35:34.092Z,3.8
2017-01-15T04:36:14.639Z,3.78
2017-01-15T04:36:55.086Z,3.73
2017-01-15T04:37:35.559Z,3.75
2017-01-15T04:38:16.236Z,3.75
2017-01-15T04:38:56.537Z,3.78
2017-01-15T04:39:37.055Z,3.75
2017-01-15T04:40:17.529Z,3.79
2017-01-15T04:40:57.982Z,3.76
2017-01-15T04:41:38.473Z,3.73
2017-01-15T04:42:18.999Z,3.76
2017-01-15T04:42:59.492Z,3.78
2017-01-15T04:43:39.993Z,3.75
2017-01-15T04:44:20.500Z,3.76
2017-01-15T04:45:00.956Z,3.86
2017-01-15T04:45:41.443Z,3.78
2017-01-15T04:46:21.951Z,3.72
2017-01-15T04:47:02.460Z,3.78
2017-01-15T04:47:42.948Z,3.78
2017-01-15T04:48:23.396Z,3.73
2017-01-15T04:49:03.935Z,3.75
2017-01-15T04:49:44.421Z,3.8
2017-01-15T04:50:24.850Z,3.88
2017-01-15T04:51:05.347Z,3.75
2017-01-15T04:51:45.781Z,3.83
2017-01-15T04:52:26.288Z,3.83
2017-01-15T04:53:06.838Z,3.8
2017-01-15T04:53:47.250Z,3.72
2017-01-15T04:54:27.773Z,3.65
2017-01-15T04:55:08.250Z,3.68
2017-01-15T04:55:48.784Z,3.66
2017-01-15T04:56:29.229Z,3.73
2017-01-15T04:57:09.701Z,3.8
2017-01-15T04:57:50.185Z,3.76
2017-01-15T04:58:30.702Z,3.72
2017-01-15T04:59:11.253Z,3.72
2017-01-15T04:59:51.651Z,3.62
2017-01-15T05:00:32.239Z,3.78
2017-01-15T05:01:12.754Z,3.69
2017-01-15T05:01:53.228Z,3.84
2017-01-15T05:02:33.762Z,3.75
2017-01-15T05:03:14.189Z,3.84
2017-01-15T05:03:54.709Z,3.76
2017-01-15T05:04:35.186Z,3.73
2017-01-15T05:05:15.661Z,3.78
2017-01-15T05:05:56.141Z,3.78
2017-01-15T05:06:36.640Z,3.86
2017-01-15T05:07:17.107Z,3.94
2017-01-15T05:07:57.631Z,3.8
2017-01-15T05:08:38.071Z,3.7
2017-01-15T05:09:18.590Z,3.75
2017-01-15T05:09:59.086Z,3.78
2017-01-15T05:10:39.683Z,3.78
2017-01-15T05:11:20.192Z,3.75
2017-01-15T05:12:00.666Z,3.8
2017-01-15T05:12:41.133Z,3.91
2017-01-15T05:13:21.740Z,3.84
2017-01-15T05:14:02.227Z,3.87
2017-01-15T05:14:42.702Z,3.94
2017-01-15T05:15:23.174Z,3.9
2017-01-15T05:16:03.711Z,4.04
2017-01-15T05:16:44.166Z,4.02
2017-01-15T05:17:24.739Z,3.98
2017-01-15T05:18:05.222Z,4
2017-01-15T05:18:45.796Z,4.09
2017-01-15T05:19:26.284Z,4.08
2017-01-15T05:20:06.745Z,4.06
2017-01-15T05:20:47.284Z,4.06
2017-01-15T05:21:27.701Z,4.08
2017-01-15T05:22:08.251Z,4.02
2017-01-15T05:22:48.743Z,3.97
2017-01-15T05:23:29.198Z,4.02
2017-01-15T05:24:09.753Z,4.08
2017-01-15T05:24:50.270Z,4.06
2017-01-15T05:25:30.715Z,4.02
2017-01-15T05:26:11.231Z,4.05
2017-01-15T05:26:51.708Z,4.08
2017-01-15T05:27:32.204Z,4
2017-01-15T05:28:12.675Z,3.98
2017-01-15T05:28:53.264Z,4.14
2017-01-15T05:29:33.889Z,4.04
2017-01-15T05:30:14.294Z,4.11
2017-01-15T05:30:54.843Z,4.04
2017-01-15T05:31:35.314Z,4.11
2017-01-15T05:32:15.809Z,4.04
2017-01-15T05:32:56.271Z,4
2017-01-15T05:33:36.756Z,4.05
2017-01-15T05:34:17.263Z,4.06
2017-01-15T05:34:57.706Z,4
2017-01-15T05:35:38.209Z,3.98
2017-01-15T05:36:18.740Z,4.02
2017-01-15T05:36:59.299Z,3.97
2017-01-15T05:37:39.825Z,4.09
2017-01-15T05:38:20.349Z,4.11
2017-01-15T05:39:00.840Z,4.08
2017-01-15T05:39:41.325Z,3.96
2017-01-15T05:40:21.800Z,3.8
2017-01-15T05:41:02.271Z,3.94
2017-01-15T05:41:42.828Z,3.94
2017-01-15T05:42:23.261Z,3.93
2017-01-15T05:43:03.785Z,4.04
2017-01-15T05:43:44.208Z,4
2017-01-15T05:44:24.766Z,4.02
2017-01-15T05:45:05.272Z,3.94
2017-01-15T05:45:45.771Z,4
2017-01-15T05:46:26.198Z,3.96
2017-01-15T05:47:06.705Z,3.97
2017-01-15T05:47:47.220Z,4.06
2017-01-15T05:48:27.662Z,4.18
2017-01-15T05:49:08.214Z,4.06
2017-01-15T05:49:48.666Z,4.09
2017-01-15T05:50:29.148Z,3.96
2017-01-15T05:51:09.652Z,3.9
2017-01-15T05:51:50.165Z,3.94
2017-01-15T05:52:30.644Z,3.91
2017-01-15T05:53:11.159Z,3.97
2017-01-15T05:53:51.611Z,4
2017-01-15T05:54:32.080Z,3.94
2017-01-15T05:55:12.538Z,3.98
2017-01-15T05:55:53.035Z,4.04
2017-01-15T05:56:33.534Z,4.05
2017-01-15T05:57:14.038Z,4
2017-01-15T05:57:54.500Z,4.04
2017-01-15T05:58:34.951Z,4.05
2017-01-15T05:59:15.453Z,3.97
2017-01-15T05:59:55.917Z,4.09
2017-01-15T06:00:36.386Z,3.98
2017-01-15T06:01:16.855Z,4.04
2017-01-15T06:01:57.389Z,4.18
2017-01-15T06:02:38.040Z,4.18
2017-01-15T06:03:18.499Z,4.09
2017-01-15T06:03:58.967Z,4.04
2017-01-15T06:04:39.430Z,4.05
2017-01-15T06:05:20.071Z,4.12
2017-01-15T06:06:00.501Z,4.15
2017-01-15T06:06:40.946Z,4.11
2017-01-15T06:07:21.437Z,4.09
2017-01-15T06:08:01.957Z,4.02
2017-01-15T06:08:42.423Z,4.06
2017-01-15T06:09:22.865Z,4.15
2017-01-15T06:10:03.380Z,4.14
2017-01-15T06:10:43.882Z,4.06
2017-01-15T06:11:24.365Z,4.04
2017-01-15T06:12:04.855Z,4.04
2017-01-15T06:12:45.283Z,3.98
2017-01-15T06:13:25.839Z,4.08
2017-01-15T06:14:06.309Z,4.08
2017-01-15T06:14:46.802Z,4.11
2017-01-15T06:15:27.311Z,4.11
2017-01-15T06:16:07.839Z,4.14
2017-01-15T06:16:48.369Z,4.02
2017-01-15T06:17:28.860Z,4.02
2017-01-15T06:18:09.329Z,4.05
2017-01-15T06:18:49.817Z,4.05
2017-01-15T06:19:30.357Z,3.96
2017-01-15T06:20:10.807Z,4.08
2017-01-15T06:20:51.302Z,3.98
2017-01-15T06:21:31.770Z,4.06
2017-01-15T06:22:12.329Z,4.09
2017-01-15T06:22:52.815Z,4.05
2017-01-15T06:23:33.271Z,4.06
2017-01-15T06:24:13.724Z,4.11
2017-01-15T06:24:54.231Z,4.16
2017-01-15T06:25:34.752Z,4.04
2017-01-15T06:26:15.222Z,4.08
2017-01-15T06:26:55.712Z,3.93
2017-01-15T06:27:36.217Z,4.05
2017-01-15T06:28:16.694Z,3.98
2017-01-15T06:28:57.209Z,3.93
2017-01-15T06:29:37.716Z,4.04
2017-01-15T06:30:18.188Z,4.08
2017-01-15T06:30:58.697Z,4.04
2017-01-15T06:31:39.151Z,4.04
2017-01-15T06:32:19.735Z,3.97
2017-01-15T06:33:00.151Z,4.05
2017-01-15T06:33:40.711Z,4.05
2017-01-15T06:34:21.202Z,4.08
2017-01-15T06:35:01.678Z,4.05
2017-01-15T06:35:42.136Z,4.02
2017-01-15T06:36:22.598Z,4.02
2017-01-15T06:37:03.132Z,4.06
2017-01-15T06:37:43.590Z,4.08
2017-01-15T06:38:24.108Z,4.16
2017-01-15T06:39:04.510Z,4.12
2017-01-15T06:39:44.995Z,4.2
2017-01-15T06:40:25.558Z,4.11
2017-01-15T06:41:06.011Z,4.11
2017-01-15T06:41:46.526Z,4.15
2017-01-15T06:42:26.998Z,4.2
2017-01-15T06:43:07.518Z,4.14
2017-01-15T06:43:48.028Z,4.18
2017-01-15T06:44:28.549Z,4.26
2017-01-15T06:45:09.004Z,4.11
2017-01-15T06:45:49.587Z,4.15
2017-01-15T06:46:29.990Z,4.14
2017-01-15T06:47:10.520Z,4.14
2017-01-15T06:47:51.036Z,4.14
2017-01-15T06:48:31.473Z,4.18
2017-01-15T06:49:12.068Z,4.2
2017-01-15T06:49:52.462Z,4.09
2017-01-15T06:50:32.918Z,4.05
2017-01-15T06:51:13.411Z,4.11
2017-01-15T06:51:53.921Z,4.14
2017-01-15T06:52:34.350Z,4.14
2017-01-15T06:53:14.906Z,4.24
2017-01-15T06:53:55.369Z,4.2
2017-01-15T06:54:35.859Z,4.2
2017-01-15T06:55:16.382Z,4.15
2017-01-15T06:55:56.914Z,4.12
2017-01-15T06:56:37.350Z,4.11
2017-01-15T06:57:17.811Z,4.14
2017-01-15T06:57:58.352Z,4.16
2017-01-15T06:58:38.891Z,4.23
2017-01-15T06:59:19.363Z,4.23
2017-01-15T06:59:59.873Z,4.16
2017-01-15T07:00:40.329Z,4.18
2017-01-15T07:01:20.861Z,4.14
2017-01-15T07:02:01.319Z,4.16
2017-01-15T07:02:41.867Z,4.22
2017-01-15T07:03:22.311Z,4.18
2017-01-15T07:04:02.873Z,4.26
2017-01-15T07:04:43.344Z,4.24
2017-01-15T07:05:23.812Z,4.26
2017-01-15T07:06:04.363Z,4.22
2017-01-15T07:06:45.360Z,4.15
2017-01-15T07:07:26.112Z,4.22
2017-01-15T07:08:06.615Z,4.2
2017-01-15T07:08:47.134Z,4.23
2017-01-15T07:09:27.482Z,4.24
2017-01-15T07:10:08.011Z,4.24
2017-01-15T07:10:48.532Z,4.15
2017-01-15T07:11:29.008Z,4.15
2017-01-15T07:12:09.568Z,4.14
2017-01-15T07:12:50.119Z,4.11
2017-01-15T07:13:30.772Z,4.14
2017-01-15T07:14:11.183Z,4.22
2017-01-15T07:14:51.693Z,4.14
2017-01-15T07:15:32.200Z,4.23
2017-01-15T07:16:12.629Z,4.2
2017-01-15T07:16:53.162Z,4.3
2017-01-15T07:17:33.722Z,4.24
2017-01-15T07:18:14.122Z,4.3
2017-01-15T07:18:54.610Z,4.4
2017-01-15T07:19:35.064Z,4.36
2017-01-15T07:20:15.573Z,4.27
2017-01-15T07:20:56.024Z,4.29
2017-01-15T07:21:36.516Z,4.24
2017-01-15T07:22:17.034Z,4.27
2017-01-15T07:22:57.609Z,4.3
2017-01-15T07:23:38.010Z,4.32
2017-01-15T07:24:18.503Z,4.34
2017-01-15T07:24:59.015Z,4.33
2017-01-15T07:25:39.493Z,4.37
2017-01-15T07:26:20.129Z,4.29
2017-01-15T07:27:00.707Z,4.29
2017-01-15T07:27:41.140Z,4.32
2017-01-15T07:28:21.672Z,4.3
2017-01-15T07:29:02.216Z,4.32
2017-01-15T07:29:42.686Z,4.32
2017-01-15T07:30:23.217Z,4.37
2017-01-15T07:31:03.723Z,4.41
2017-01-15T07:31:44.218Z,4.45
2017-01-15T07:32:24.698Z,4.4
2017-01-15T07:33:05.221Z,4.3
2017-01-15T07:33:45.681Z,4.4
2017-01-15T07:34:26.162Z,4.33
2017-01-15T07:35:06.686Z,4.27
2017-01-15T07:35:47.180Z,4.41
2017-01-15T07:36:27.633Z,4.37
2017-01-15T07:37:08.174Z,4.27
2017-01-15T07:37:48.628Z,4.24
2017-01-15T07:38:29.167Z,4.34
2017-01-15T07:39:09.676Z,4.37
2017-01-15T07:39:50.164Z,4.26
2017-01-15T07:40:30.663Z,4.32
2017-01-15T07:41:11.126Z,4.32
2017-01-15T07:41:51.599Z,4.27
2017-01-15T07:42:32.150Z,4.26
2017-01-15T07:43:12.721Z,4.24
2017-01-15T07:43:53.267Z,4.32
2017-01-15T07:44:33.765Z,4.34
2017-01-15T07:45:14.449Z,4.34
2017-01-15T07:45:54.783Z,4.48
2017-01-15T07:46:35.332Z,4.32
2017-01-15T07:47:15.764Z,4.3
2017-01-15T07:47:56.239Z,4.26
2017-01-15T07:48:36.741Z,4.24
2017-01-15T07:49:17.193Z,4.2
2017-01-15T07:49:57.690Z,4.26
2017-01-15T07:50:38.199Z,4.24
2017-01-15T07:51:18.706Z,4.27
2017-01-15T07:51:59.173Z,4.45
2017-01-15T07:52:39.682Z,4.42
2017-01-15T07:53:20.165Z,4.41
2017-01-15T07:54:00.645Z,4.44
2017-01-15T07:54:41.129Z,4.42
2017-01-15T07:56:56.320Z,4.44
2017-01-15T07:57:35.834Z,4.41
2017-01-15T07:58:16.357Z,4.37
2017-01-15T07:58:56.786Z,4.4
2017-01-15T07:59:37.304Z,4.5
2017-01-15T08:00:17.773Z,4.45
2017-01-15T08:00:58.254Z,4.52
2017-01-15T08:01:38.771Z,4.65
2017-01-15T08:02:19.305Z,4.58
2017-01-15T08:02:59.754Z,4.52
2017-01-15T08:03:40.253Z,4.5
2017-01-15T08:04:20.969Z,4.51
2017-01-15T08:05:01.472Z,4.55
2017-01-15T08:05:41.989Z,4.58
2017-01-15T08:06:22.505Z,4.5
2017-01-15T08:07:02.957Z,4.48
2017-01-15T08:07:43.465Z,4.4
2017-01-15T08:08:23.965Z,4.55
2017-01-15T08:09:04.522Z,4.6
2017-01-15T08:09:44.987Z,4.52
2017-01-15T08:10:25.494Z,4.44
2017-01-15T08:11:06.070Z,4.52
2017-01-15T08:11:46.604Z,4.48
2017-01-15T08:12:27.065Z,4.42
2017-01-15T08:13:07.511Z,4.51
2017-01-15T08:13:48.044Z,4.52
2017-01-15T08:14:28.531Z,4.51
2017-01-15T08:15:09.011Z,4.51
2017-01-15T08:15:49.551Z,4.63
2017-01-15T08:16:30.015Z,4.59
2017-01-15T08:17:10.505Z,4.55
2017-01-15T08:17:50.993Z,4.58
2017-01-15T08:18:31.484Z,4.65
2017-01-15T08:19:11.994Z,4.63
2017-01-15T08:19:52.519Z,4.47
2017-01-15T08:20:33.032Z,4.55
2017-01-15T08:21:13.557Z,4.65
2017-01-15T08:21:54.026Z,4.6
2017-01-15T08:22:34.474Z,4.65
2017-01-15T08:23:14.983Z,4.66
2017-01-15T08:23:55.484Z,4.75
2017-01-15T08:24:35.931Z,4.69
2017-01-15T08:25:16.504Z,4.8
2017-01-15T08:25:56.955Z,4.8
2017-01-15T08:26:37.440Z,4.84
2017-01-15T08:27:18.004Z,4.7
2017-01-15T08:27:58.457Z,4.78
2017-01-15T08:28:38.989Z,4.73
2017-01-15T08:29:19.481Z,4.72
2017-01-15T08:29:59.965Z,4.65
2017-01-15T08:30:40.484Z,4.55
2017-01-15T08:31:20.991Z,4.67
2017-01-15T08:32:01.518Z,4.65
2017-01-15T08:32:42.042Z,4.7
2017-01-15T08:33:22.546Z,4.7
2017-01-15T08:34:03.026Z,4.72
2017-01-15T08:34:43.453Z,4.8
2017-01-15T08:35:23.930Z,4.77
2017-01-15T08:36:04.433Z,4.82
2017-01-15T08:36:44.909Z,4.89
2017-01-15T08:37:25.406Z,4.85
2017-01-15T08:38:05.927Z,4.77
2017-01-15T08:38:46.363Z,4.88
2017-01-15T08:39:26.938Z,4.86
2017-01-15T08:40:07.324Z,4.84
2017-01-15T08:40:47.828Z,4.88
2017-01-15T08:41:28.341Z,4.77
2017-01-15T08:42:08.827Z,4.73
2017-01-15T08:42:49.290Z,4.8
2017-01-15T08:43:29.746Z,4.8
2017-01-15T08:44:10.213Z,4.78
2017-01-15T08:44:50.783Z,4.77
2017-01-15T08:45:31.250Z,4.63
2017-01-15T08:46:11.690Z,4.84
2017-01-15T08:46:52.178Z,4.66
2017-01-15T08:47:32.693Z,4.75
2017-01-15T08:48:13.159Z,4.78
2017-01-15T08:48:53.679Z,4.73
2017-01-15T08:49:34.168Z,4.85
2017-01-15T08:50:14.636Z,4.78
2017-01-15T08:50:55.113Z,4.72
2017-01-15T08:51:35.644Z,4.86
2017-01-15T08:52:16.104Z,4.75
2017-01-15T08:52:56.581Z,4.7
2017-01-15T08:53:37.050Z,4.77
2017-01-15T08:54:17.692Z,4.88
2017-01-15T08:54:58.162Z,4.89
2017-01-15T08:55:38.636Z,4.89
2017-01-15T08:56:19.086Z,4.97
2017-01-15T08:56:59.622Z,5.02
2017-01-15T08:57:40.092Z,5.04
2017-01-15T08:58:20.529Z,5.02
2017-01-15T08:59:01.068Z,5.07
2017-01-15T08:59:41.599Z,5.07
2017-01-15T09:00:22.098Z,5
2017-01-15T09:01:02.572Z,5.04
2017-01-15T09:01:43.052Z,5.12
2017-01-15T09:02:23.599Z,5.02
2017-01-15T09:03:04.047Z,5.06
2017-01-15T09:03:44.585Z,5.09
2017-01-15T09:04:25.043Z,5.12
2017-01-15T09:05:05.541Z,5.22
2017-01-15T09:05:46.000Z,5.15
2017-01-15T09:06:26.658Z,5.22
2017-01-15T09:07:07.172Z,5.15
2017-01-15T09:07:47.601Z,5.17
2017-01-15T09:08:28.129Z,5.22
2017-01-15T09:09:08.575Z,5.22
2017-01-15T09:09:49.100Z,5.17
2017-01-15T09:10:29.598Z,5.25